Time;durP1;ratioP1;P1;durP2;ratioP2;P2;SDS_P1;SDS_P2;PMS_P1;PMS_P2;Temp;Humidity;BMP_temperature;BMP_pressure;BME280_temperature;BME280_humidity;BME280_pressure;Samples;Min_cycle;Max_cycle;Signal;HPM_P1;HPM_P2
2022/10/01 00:00:56;;;;;;;23.63;16.77;;;;;;;;;;4954209;28;20240;-68
2022/10/01 00:03:23;;;;;;;29.90;18.23;;;;;;;;;;4970729;28;20216;-68
2022/10/01 00:06:09;;;;;;;25.43;15.70;;;;;;;;;;4969738;28;20196;-68
2022/10/01 00:08:36;;;;;;;25.97;17.30;;;;;;;;;;4966777;28;20661;-69
2022/10/01 00:11:07;;;;;;;23.20;13.60;;;;;;;;;;4970043;28;20677;-69
2022/10/01 00:13:34;;;;;;;25.90;16.23;;;;;;;;;;4971090;28;20556;-68
2022/10/01 00:16:03;;;;;;;26.93;18.23;;;;;;;;;;4968822;28;20205;-69
2022/10/01 00:18:30;;;;;;;26.87;17.00;;;;;;;;;;4973948;28;20277;-69
2022/10/01 00:20:56;;;;;;;28.50;17.77;;;;;;;;;;4969955;28;20601;-68
2022/10/01 00:23:23;;;;;;;28.40;17.50;;;;;;;;;;4969975;28;20268;-68
2022/10/01 00:25:51;;;;;;;21.70;14.40;;;;;;;;;;4959215;28;20194;-68
2022/10/01 00:28:17;;;;;;;24.07;15.50;;;;;;;;;;4951698;28;20801;-68
2022/10/01 00:30:47;;;;;;;29.93;18.63;;;;;;;;;;4956557;28;20444;-68
2022/10/01 00:33:14;;;;;;;24.97;16.70;;;;;;;;;;4969969;28;20240;-68
2022/10/01 00:35:41;;;;;;;29.80;17.93;;;;;;;;;;4969852;28;20475;-69
2022/10/01 00:38:25;;;;;;;22.87;15.23;;;;;;;;;;4964910;28;20855;-68
2022/10/01 00:40:52;;;;;;;26.43;16.80;;;;;;;;;;4969616;28;20202;-69
2022/10/01 00:43:22;;;;;;;23.93;14.60;;;;;;;;;;4964592;28;21119;-68
2022/10/01 00:45:49;;;;;;;26.53;16.53;;;;;;;;;;4970989;28;20297;-69
2022/10/01 00:48:16;;;;;;;23.20;15.90;;;;;;;;;;4970994;28;20194;-68
2022/10/01 00:50:43;;;;;;;23.80;16.67;;;;;;;;;;4966208;28;20277;-68
2022/10/01 00:53:10;;;;;;;24.13;17.10;;;;;;;;;;4951008;28;20206;-68
2022/10/01 00:55:41;;;;;;;24.83;17.03;;;;;;;;;;4962962;28;20284;-68
2022/10/01 00:58:25;;;;;;;28.77;19.27;;;;;;;;;;4968195;28;20188;-68
2022/10/01 01:00:52;;;;;;;28.93;19.70;;;;;;;;;;4968948;28;20244;-68
2022/10/01 01:03:19;;;;;;;29.57;19.47;;;;;;;;;;4970442;28;20189;-68
2022/10/01 01:05:46;;;;;;;31.57;20.40;;;;;;;;;;4969261;28;20189;-68
2022/10/01 01:08:13;;;;;;;33.20;21.80;;;;;;;;;;4969246;28;20217;-69
2022/10/01 01:10:40;;;;;;;38.87;24.13;;;;;;;;;;4972602;28;20635;-68
2022/10/01 01:13:21;;;;;;;34.13;22.47;;;;;;;;;;4974107;28;20280;-68
2022/10/01 01:15:52;;;;;;;36.83;24.07;;;;;;;;;;4973356;28;20201;-69
2022/10/01 01:18:28;;;;;;;37.43;24.87;;;;;;;;;;4973277;28;20197;-68
2022/10/01 01:20:55;;;;;;;37.67;24.93;;;;;;;;;;4972907;28;20829;-68
2022/10/01 01:23:31;;;;;;;36.57;24.60;;;;;;;;;;4974070;28;20189;-69
2022/10/01 01:26:16;;;;;;;42.57;25.60;;;;;;;;;;4974219;28;20259;-68
2022/10/01 01:28:43;;;;;;;35.70;25.03;;;;;;;;;;4973867;28;20185;-70
2022/10/01 01:31:13;;;;;;;36.60;23.90;;;;;;;;;;4964423;28;20202;-69
2022/10/01 01:33:39;;;;;;;35.50;24.60;;;;;;;;;;4953849;28;20313;-68
2022/10/01 01:36:35;;;;;;;36.07;24.17;;;;;;;;;;4953239;28;20658;-68
2022/10/01 01:39:03;;;;;;;33.57;23.20;;;;;;;;;;4953238;29;20214;-69
2022/10/01 01:41:31;;;;;;;36.63;23.90;;;;;;;;;;4953120;29;20230;-69
2022/10/01 01:43:59;;;;;;;35.23;23.70;;;;;;;;;;4952999;29;20234;-69
2022/10/01 01:46:30;;;;;;;32.17;23.73;;;;;;;;;;4953210;29;20578;-69
2022/10/01 01:48:58;;;;;;;33.83;22.63;;;;;;;;;;4937840;29;20711;-69
2022/10/01 01:51:32;;;;;;;33.27;22.87;;;;;;;;;;4972336;28;20193;-69
2022/10/01 01:54:00;;;;;;;37.13;23.57;;;;;;;;;;4971239;28;20205;-69
2022/10/01 01:56:26;;;;;;;32.77;22.60;;;;;;;;;;4971358;28;20194;-69
2022/10/01 01:58:53;;;;;;;36.07;22.83;;;;;;;;;;4971059;28;20201;-69
2022/10/01 02:01:30;;;;;;;30.00;21.73;;;;;;;;;;4982778;28;20198;-69
2022/10/01 02:03:57;;;;;;;30.80;21.53;;;;;;;;;;4972708;28;20267;-69
2022/10/01 02:06:47;;;;;;;30.93;21.07;;;;;;;;;;4971979;28;20194;-70
2022/10/01 02:09:26;;;;;;;30.53;20.63;;;;;;;;;;4962174;28;20197;-69
2022/10/01 02:12:06;;;;;;;23.30;17.67;;;;;;;;;;4988581;28;20256;-68
2022/10/01 02:14:43;;;;;;;26.97;18.23;;;;;;;;;;4956430;28;20280;-68
2022/10/01 02:17:15;;;;;;;28.63;20.13;;;;;;;;;;4972135;28;20223;-68
2022/10/01 02:19:45;;;;;;;27.83;18.40;;;;;;;;;;4952863;28;20195;-69
2022/10/01 02:22:13;;;;;;;25.93;18.53;;;;;;;;;;4952475;28;20229;-68
2022/10/01 02:24:49;;;;;;;31.53;21.27;;;;;;;;;;4973824;28;20329;-69
2022/10/01 02:27:21;;;;;;;33.53;22.93;;;;;;;;;;4973020;28;20326;-68
2022/10/01 02:29:48;;;;;;;27.03;20.10;;;;;;;;;;4968153;28;20198;-69
2022/10/01 02:32:14;;;;;;;28.40;19.73;;;;;;;;;;4958196;28;20241;-69
2022/10/01 02:34:42;;;;;;;28.30;19.57;;;;;;;;;;4970008;28;20326;-69
2022/10/01 02:37:08;;;;;;;30.27;18.43;;;;;;;;;;4967035;28;20237;-69
2022/10/01 02:39:35;;;;;;;23.83;17.10;;;;;;;;;;4957103;28;20193;-69
2022/10/01 02:42:02;;;;;;;25.70;17.63;;;;;;;;;;4972343;28;20189;-69
2022/10/01 02:44:30;;;;;;;26.10;17.97;;;;;;;;;;4972127;28;20248;-69
2022/10/01 02:46:58;;;;;;;25.10;17.20;;;;;;;;;;4971924;28;20193;-68
2022/10/01 02:49:42;;;;;;;25.90;15.43;;;;;;;;;;4968664;28;20189;-69
2022/10/01 02:52:10;;;;;;;28.83;19.80;;;;;;;;;;4953181;29;20258;-68
2022/10/01 02:55:00;;;;;;;27.87;18.97;;;;;;;;;;4952969;28;20233;-69
2022/10/01 02:57:27;;;;;;;27.70;18.97;;;;;;;;;;4967005;28;20530;-68
2022/10/01 03:00:12;;;;;;;26.10;19.23;;;;;;;;;;4971480;28;20169;-69
2022/10/01 03:02:39;;;;;;;29.17;18.53;;;;;;;;;;4970342;28;20197;-69
2022/10/01 03:05:23;;;;;;;27.47;19.83;;;;;;;;;;4966973;28;20216;-68
2022/10/01 03:07:50;;;;;;;27.53;19.77;;;;;;;;;;4957493;28;21440;-68
2022/10/01 03:10:17;;;;;;;30.47;19.80;;;;;;;;;;4969827;28;20252;-69
2022/10/01 03:12:46;;;;;;;29.73;19.63;;;;;;;;;;4968848;28;20542;-69
2022/10/01 03:15:13;;;;;;;33.77;21.60;;;;;;;;;;4965992;28;20284;-68
2022/10/01 03:17:40;;;;;;;30.63;21.40;;;;;;;;;;4970084;28;20197;-68
2022/10/01 03:20:07;;;;;;;28.00;18.13;;;;;;;;;;4970000;28;20284;-68
2022/10/01 03:22:34;;;;;;;29.53;19.97;;;;;;;;;;4971582;28;20546;-70
2022/10/01 03:25:00;;;;;;;33.20;23.00;;;;;;;;;;4971138;28;20401;-68
2022/10/01 03:27:27;;;;;;;26.57;18.13;;;;;;;;;;4967982;28;20245;-68
2022/10/01 03:29:54;;;;;;;27.37;19.23;;;;;;;;;;4965903;28;20272;-69
2022/10/01 03:32:38;;;;;;;26.17;18.03;;;;;;;;;;4970471;28;20188;-69
2022/10/01 03:35:05;;;;;;;26.60;18.40;;;;;;;;;;4968506;28;20465;-68
2022/10/01 03:37:32;;;;;;;27.17;17.63;;;;;;;;;;4971526;28;20189;-68
2022/10/01 03:39:59;;;;;;;31.33;20.17;;;;;;;;;;4965502;28;20601;-68
2022/10/01 03:42:25;;;;;;;31.77;21.27;;;;;;;;;;4957865;28;20218;-69
2022/10/01 03:44:52;;;;;;;35.73;22.87;;;;;;;;;;4970592;28;20225;-68
2022/10/01 03:47:21;;;;;;;36.30;24.13;;;;;;;;;;4971763;28;20189;-68
2022/10/01 03:49:47;;;;;;;34.47;21.90;;;;;;;;;;4970374;28;20248;-68
2022/10/01 03:52:14;;;;;;;30.13;19.33;;;;;;;;;;4970327;28;20186;-68
2022/10/01 03:54:41;;;;;;;31.90;21.97;;;;;;;;;;4969669;28;20185;-68
2022/10/01 03:57:08;;;;;;;31.47;19.43;;;;;;;;;;4968394;28;20198;-68
2022/10/01 03:59:35;;;;;;;28.90;18.20;;;;;;;;;;4970626;28;20178;-69
2022/10/01 04:02:01;;;;;;;22.87;16.20;;;;;;;;;;4970417;28;20456;-68
2022/10/01 04:04:28;;;;;;;24.57;16.17;;;;;;;;;;4970007;28;20291;-69
2022/10/01 04:06:55;;;;;;;23.00;15.30;;;;;;;;;;4967409;28;20519;-68
2022/10/01 04:09:21;;;;;;;24.23;17.23;;;;;;;;;;4951144;28;20218;-69
2022/10/01 04:11:48;;;;;;;29.80;18.47;;;;;;;;;;4965212;28;20440;-68
2022/10/01 04:14:15;;;;;;;22.30;14.93;;;;;;;;;;4966340;28;20189;-69
2022/10/01 04:16:42;;;;;;;25.30;17.50;;;;;;;;;;4983977;28;20256;-68
2022/10/01 04:19:09;;;;;;;26.47;17.30;;;;;;;;;;4956938;28;21186;-68
2022/10/01 04:21:36;;;;;;;24.70;16.57;;;;;;;;;;4968887;28;20457;-68
2022/10/01 04:24:04;;;;;;;22.73;15.97;;;;;;;;;;4968867;28;20883;-68
2022/10/01 04:26:30;;;;;;;25.17;17.10;;;;;;;;;;4970893;28;20915;-67
2022/10/01 04:28:57;;;;;;;25.33;17.23;;;;;;;;;;4969892;28;20453;-69
2022/10/01 04:31:24;;;;;;;23.43;15.10;;;;;;;;;;4968158;28;20456;-68
2022/10/01 04:33:55;;;;;;;23.23;15.40;;;;;;;;;;4969662;28;20429;-68
2022/10/01 04:36:23;;;;;;;22.80;16.20;;;;;;;;;;4970192;28;20496;-68
2022/10/01 04:38:53;;;;;;;22.30;14.87;;;;;;;;;;4967955;28;20456;-70
2022/10/01 04:41:29;;;;;;;22.77;14.77;;;;;;;;;;4966809;28;20516;-69
2022/10/01 04:43:58;;;;;;;26.60;15.50;;;;;;;;;;4969200;28;20523;-70
2022/10/01 04:46:24;;;;;;;24.80;15.93;;;;;;;;;;4965134;28;20485;-69
2022/10/01 04:48:51;;;;;;;26.77;17.63;;;;;;;;;;4952789;28;20466;-69
2022/10/01 04:51:18;;;;;;;28.37;17.47;;;;;;;;;;4974290;28;20440;-68
2022/10/01 04:53:45;;;;;;;24.03;17.53;;;;;;;;;;4990521;28;20489;-67
2022/10/01 04:56:12;;;;;;;27.33;17.77;;;;;;;;;;4979242;28;20485;-69
2022/10/01 04:58:40;;;;;;;24.30;16.40;;;;;;;;;;4970868;28;20947;-66
2022/10/01 05:01:06;;;;;;;26.70;16.27;;;;;;;;;;4969994;28;20429;-66
2022/10/01 05:03:33;;;;;;;29.80;18.63;;;;;;;;;;4963883;28;20434;-66
2022/10/01 05:06:00;;;;;;;32.03;19.07;;;;;;;;;;4950874;28;20480;-66
2022/10/01 05:08:27;;;;;;;35.73;21.80;;;;;;;;;;4979316;28;20515;-68
2022/10/01 05:10:54;;;;;;;40.93;26.23;;;;;;;;;;4974612;28;20433;-68
2022/10/01 05:13:20;;;;;;;37.37;24.10;;;;;;;;;;4970253;28;20437;-68
2022/10/01 05:15:48;;;;;;;42.40;27.63;;;;;;;;;;4969621;28;20461;-66
2022/10/01 05:18:14;;;;;;;47.03;27.90;;;;;;;;;;4968490;28;20520;-66
2022/10/01 05:20:41;;;;;;;46.03;28.93;;;;;;;;;;4968831;28;20503;-66
2022/10/01 05:23:08;;;;;;;41.43;27.27;;;;;;;;;;4962504;28;20999;-66
2022/10/01 05:25:35;;;;;;;42.37;28.00;;;;;;;;;;4961469;28;20225;-67
2022/10/01 05:28:04;;;;;;;41.33;25.87;;;;;;;;;;4949766;29;20214;-68
2022/10/01 05:30:32;;;;;;;45.30;27.50;;;;;;;;;;4962669;28;20805;-69
2022/10/01 05:32:59;;;;;;;39.60;27.07;;;;;;;;;;4970228;28;20192;-68
2022/10/01 05:35:26;;;;;;;40.33;26.53;;;;;;;;;;4968134;28;20712;-68
2022/10/01 05:37:54;;;;;;;44.13;28.43;;;;;;;;;;4967259;28;20197;-68
2022/10/01 05:40:20;;;;;;;45.40;28.67;;;;;;;;;;4968277;28;20194;-68
2022/10/01 05:42:47;;;;;;;39.93;27.50;;;;;;;;;;4967052;28;20256;-67
2022/10/01 05:45:14;;;;;;;40.70;27.30;;;;;;;;;;4967438;28;20551;-68
2022/10/01 05:47:41;;;;;;;42.60;27.57;;;;;;;;;;4964967;28;20564;-68
2022/10/01 05:50:08;;;;;;;46.23;29.73;;;;;;;;;;4968167;28;20553;-69
2022/10/01 05:52:35;;;;;;;46.53;29.57;;;;;;;;;;4967508;28;20200;-68
2022/10/01 05:55:02;;;;;;;48.00;30.07;;;;;;;;;;4969259;28;20194;-67
2022/10/01 05:57:30;;;;;;;49.77;30.27;;;;;;;;;;4972680;28;20189;-67
2022/10/01 05:59:56;;;;;;;45.50;30.43;;;;;;;;;;4972867;28;20197;-67
2022/10/01 06:02:23;;;;;;;48.10;30.40;;;;;;;;;;4972344;28;20201;-68
2022/10/01 06:05:07;;;;;;;45.50;29.63;;;;;;;;;;4972392;28;20208;-68
2022/10/01 06:07:34;;;;;;;47.40;30.00;;;;;;;;;;4972413;28;20193;-68
2022/10/01 06:10:01;;;;;;;48.63;30.97;;;;;;;;;;4969321;28;20193;-68
2022/10/01 06:12:27;;;;;;;40.17;27.60;;;;;;;;;;4956362;28;20249;-68
2022/10/01 06:14:54;;;;;;;37.20;26.20;;;;;;;;;;4972815;28;20834;-68
2022/10/01 06:17:21;;;;;;;36.53;24.80;;;;;;;;;;4972900;28;20202;-68
2022/10/01 06:19:48;;;;;;;33.90;24.17;;;;;;;;;;4972186;28;20189;-68
2022/10/01 06:22:15;;;;;;;39.13;24.37;;;;;;;;;;4970224;28;20300;-68
2022/10/01 06:24:41;;;;;;;37.90;25.67;;;;;;;;;;4972742;28;20251;-68
2022/10/01 06:27:10;;;;;;;37.53;26.17;;;;;;;;;;4972124;28;20213;-68
2022/10/01 06:29:37;;;;;;;38.67;25.77;;;;;;;;;;4955643;28;20237;-68
2022/10/01 06:32:21;;;;;;;39.07;26.07;;;;;;;;;;4954347;28;20174;-69
2022/10/01 06:34:48;;;;;;;39.20;25.77;;;;;;;;;;4972934;28;20210;-68
2022/10/01 06:37:15;;;;;;;40.20;26.63;;;;;;;;;;4967256;28;20538;-68
2022/10/01 06:39:43;;;;;;;42.63;26.70;;;;;;;;;;4973319;28;20676;-68
2022/10/01 06:42:10;;;;;;;38.87;26.83;;;;;;;;;;4971518;28;20288;-68
2022/10/01 06:44:36;;;;;;;36.47;24.90;;;;;;;;;;4972966;28;20189;-68
2022/10/01 06:47:05;;;;;;;37.53;25.80;;;;;;;;;;4963155;28;20198;-68
2022/10/01 06:49:33;;;;;;;34.67;24.93;;;;;;;;;;4957528;28;20269;-68
2022/10/01 06:54:45;;;;;;;32.47;21.50;;;;;;;;;;4969664;28;20201;-68
2022/10/01 06:57:12;;;;;;;29.50;20.07;;;;;;;;;;4967976;28;20193;-69
2022/10/01 06:59:40;;;;;;;25.03;18.80;;;;;;;;;;4969813;28;20224;-69
2022/10/01 07:02:08;;;;;;;23.77;17.27;;;;;;;;;;4970314;28;20190;-68
2022/10/01 07:04:35;;;;;;;23.77;15.73;;;;;;;;;;4969615;28;20268;-69
2022/10/01 07:07:02;;;;;;;21.60;15.03;;;;;;;;;;4968637;28;20217;-69
2022/10/01 07:09:29;;;;;;;18.77;14.30;;;;;;;;;;4971247;28;20193;-68
2022/10/01 07:11:56;;;;;;;18.23;14.07;;;;;;;;;;4968198;28;20236;-69
2022/10/01 07:14:23;;;;;;;16.60;13.50;;;;;;;;;;4970225;28;20280;-69
2022/10/01 07:16:49;;;;;;;17.10;13.73;;;;;;;;;;4971050;28;20201;-68
2022/10/01 07:19:16;;;;;;;17.07;12.70;;;;;;;;;;4968504;28;20892;-68
2022/10/01 07:21:45;;;;;;;15.60;12.53;;;;;;;;;;4971416;28;20198;-68
2022/10/01 07:24:12;;;;;;;15.27;11.37;;;;;;;;;;4969851;28;20193;-69
2022/10/01 07:26:39;;;;;;;14.77;11.60;;;;;;;;;;4971364;28;20313;-68
2022/10/01 07:29:07;;;;;;;15.60;12.07;;;;;;;;;;4971229;28;20206;-69
2022/10/01 07:31:34;;;;;;;16.20;11.80;;;;;;;;;;4973563;28;20283;-69
2022/10/01 07:34:02;;;;;;;13.80;10.87;;;;;;;;;;4969174;28;20190;-71
2022/10/01 07:36:29;;;;;;;12.27;10.20;;;;;;;;;;4968880;28;20229;-70
2022/10/01 07:38:57;;;;;;;13.57;10.63;;;;;;;;;;4966458;28;20197;-69
2022/10/01 07:41:24;;;;;;;12.57;10.13;;;;;;;;;;4970085;28;20209;-69
2022/10/01 07:43:53;;;;;;;10.47;9.00;;;;;;;;;;4967804;28;20320;-69
2022/10/01 07:46:20;;;;;;;9.70;8.70;;;;;;;;;;4970163;28;20218;-69
2022/10/01 07:48:48;;;;;;;10.27;8.10;;;;;;;;;;4970256;28;20274;-69
2022/10/01 07:51:14;;;;;;;9.50;8.13;;;;;;;;;;4969454;28;20178;-69
2022/10/01 07:53:41;;;;;;;8.47;7.43;;;;;;;;;;4970519;28;20577;-67
2022/10/01 07:56:08;;;;;;;9.47;7.30;;;;;;;;;;4958714;28;20601;-69
2022/10/01 07:58:35;;;;;;;8.43;6.87;;;;;;;;;;4966831;28;20276;-69
2022/10/01 08:01:02;;;;;;;10.80;7.73;;;;;;;;;;4970555;28;20200;-71
2022/10/01 08:03:29;;;;;;;11.47;7.17;;;;;;;;;;4968970;28;20189;-71
2022/10/01 08:05:56;;;;;;;9.73;6.63;;;;;;;;;;4965544;28;20713;-70
2022/10/01 08:08:23;;;;;;;9.13;6.30;;;;;;;;;;4970091;28;20204;-70
2022/10/01 08:10:50;;;;;;;9.50;6.77;;;;;;;;;;4970469;28;20177;-71
2022/10/01 08:13:17;;;;;;;7.67;6.17;;;;;;;;;;4956303;28;20870;-71
2022/10/01 08:15:52;;;;;;;8.17;5.80;;;;;;;;;;4968996;28;20197;-70
2022/10/01 08:18:36;;;;;;;7.10;5.37;;;;;;;;;;4970066;28;20264;-70
2022/10/01 08:21:03;;;;;;;7.53;5.03;;;;;;;;;;4960307;28;20206;-71
2022/10/01 08:23:32;;;;;;;6.53;4.83;;;;;;;;;;4962765;28;20854;-70
2022/10/01 08:25:59;;;;;;;6.60;4.80;;;;;;;;;;4971119;28;20949;-70
2022/10/01 08:28:26;;;;;;;5.80;4.43;;;;;;;;;;4958952;28;20232;-70
2022/10/01 08:30:54;;;;;;;5.77;4.70;;;;;;;;;;4963754;28;20202;-69
2022/10/01 08:33:22;;;;;;;6.63;5.10;;;;;;;;;;4966897;28;20638;-69
2022/10/01 08:35:49;;;;;;;6.50;4.70;;;;;;;;;;4968108;28;20225;-69
2022/10/01 08:38:18;;;;;;;6.33;4.73;;;;;;;;;;4968866;28;20197;-69
2022/10/01 08:40:46;;;;;;;6.00;4.50;;;;;;;;;;4969901;28;20300;-69
2022/10/01 08:43:33;;;;;;;6.43;4.40;;;;;;;;;;4968901;28;20229;-69
2022/10/01 08:46:01;;;;;;;5.07;3.90;;;;;;;;;;4963201;28;20697;-69
2022/10/01 08:48:29;;;;;;;4.50;4.03;;;;;;;;;;4966488;28;20232;-69
2022/10/01 08:50:58;;;;;;;4.50;3.87;;;;;;;;;;4968789;28;20204;-68
2022/10/01 08:53:51;;;;;;;5.67;4.13;;;;;;;;;;4969255;28;20212;-69
2022/10/01 08:56:23;;;;;;;5.80;4.13;;;;;;;;;;4953535;28;20224;-68
2022/10/01 08:58:53;;;;;;;5.43;4.07;;;;;;;;;;4955039;28;20202;-69
2022/10/01 09:01:20;;;;;;;5.67;4.00;;;;;;;;;;4965017;28;20619;-69
2022/10/01 09:03:47;;;;;;;4.87;4.13;;;;;;;;;;4966561;28;20292;-69
2022/10/01 09:06:18;;;;;;;6.17;4.60;;;;;;;;;;4969626;28;20303;-69
2022/10/01 09:09:04;;;;;;;4.60;4.10;;;;;;;;;;4968914;28;20201;-69
2022/10/01 09:11:50;;;;;;;5.13;4.53;;;;;;;;;;4968703;28;20186;-68
2022/10/01 09:14:27;;;;;;;6.30;4.50;;;;;;;;;;4970139;28;20259;-69
2022/10/01 09:17:01;;;;;;;7.43;5.20;;;;;;;;;;4953791;28;20189;-69
2022/10/01 09:19:33;;;;;;;8.47;5.60;;;;;;;;;;4965277;28;20201;-69
2022/10/01 09:22:03;;;;;;;8.63;5.90;;;;;;;;;;4970092;28;20350;-69
2022/10/01 09:24:42;;;;;;;7.53;5.27;;;;;;;;;;4967705;28;20201;-69
2022/10/01 09:27:18;;;;;;;8.03;5.17;;;;;;;;;;4968837;28;20712;-70
2022/10/01 09:29:56;;;;;;;7.40;5.47;;;;;;;;;;4977857;28;21001;-69
2022/10/01 09:32:25;;;;;;;6.27;5.60;;;;;;;;;;4967698;28;20189;-69
2022/10/01 09:34:52;;;;;;;7.60;5.33;;;;;;;;;;4970202;28;20681;-69
2022/10/01 09:37:22;;;;;;;6.03;5.43;;;;;;;;;;4965399;28;20234;-69
2022/10/01 09:39:51;;;;;;;6.53;5.57;;;;;;;;;;4967575;28;20206;-70
2022/10/01 09:42:18;;;;;;;8.50;6.10;;;;;;;;;;4972417;28;20224;-69
2022/10/01 09:44:46;;;;;;;7.83;6.30;;;;;;;;;;4955047;28;20194;-69
2022/10/01 09:47:17;;;;;;;6.77;6.07;;;;;;;;;;4971769;28;20220;-60
2022/10/01 09:49:44;;;;;;;7.40;6.20;;;;;;;;;;4970628;28;20205;-60
2022/10/01 09:52:29;;;;;;;8.90;6.23;;;;;;;;;;4969967;28;20834;-69
2022/10/01 09:54:59;;;;;;;8.33;5.93;;;;;;;;;;4964226;28;20209;-69
2022/10/01 09:57:39;;;;;;;7.13;6.13;;;;;;;;;;4971107;28;20203;-69
2022/10/01 10:00:09;;;;;;;7.83;6.07;;;;;;;;;;4969638;28;20609;-69
2022/10/01 10:02:38;;;;;;;10.03;6.37;;;;;;;;;;4971355;28;20204;-69
2022/10/01 10:05:17;;;;;;;8.57;6.97;;;;;;;;;;4967914;28;20236;-69
2022/10/01 10:07:45;;;;;;;7.67;6.53;;;;;;;;;;4958777;28;20222;-69
2022/10/01 10:10:23;;;;;;;9.63;7.10;;;;;;;;;;4972889;28;20185;-69
2022/10/01 10:13:06;;;;;;;7.87;6.53;;;;;;;;;;4965416;28;20189;-69
2022/10/01 10:15:41;;;;;;;12.07;7.47;;;;;;;;;;4973589;28;20187;-69
2022/10/01 10:18:11;;;;;;;10.30;7.53;;;;;;;;;;4973969;28;20272;-69
2022/10/01 10:20:39;;;;;;;8.50;7.03;;;;;;;;;;4973106;28;20288;-69
2022/10/01 10:23:14;;;;;;;9.03;7.73;;;;;;;;;;4973234;28;20194;-70
2022/10/01 10:25:41;;;;;;;9.03;7.27;;;;;;;;;;4966630;28;20197;-69
2022/10/01 10:28:18;;;;;;;10.43;7.73;;;;;;;;;;4964724;28;20202;-70
2022/10/01 10:30:46;;;;;;;10.63;7.50;;;;;;;;;;4973533;28;20775;-69
2022/10/01 10:33:12;;;;;;;11.73;8.37;;;;;;;;;;4969051;28;20197;-69
2022/10/01 10:35:40;;;;;;;8.83;6.57;;;;;;;;;;4964373;28;20296;-69
2022/10/01 10:38:15;;;;;;;10.23;7.27;;;;;;;;;;4972944;28;20189;-69
2022/10/01 10:40:42;;;;;;;12.97;7.60;;;;;;;;;;4972692;28;20209;-69
2022/10/01 10:43:17;;;;;;;10.97;7.93;;;;;;;;;;4951964;28;20234;-70
2022/10/01 10:45:45;;;;;;;9.77;7.60;;;;;;;;;;4964052;28;20193;-69
2022/10/01 10:48:15;;;;;;;11.43;7.63;;;;;;;;;;4967284;28;20189;-69
2022/10/01 10:50:43;;;;;;;9.20;6.53;;;;;;;;;;4963439;28;20201;-69
2022/10/01 10:53:17;;;;;;;9.47;6.50;;;;;;;;;;4964600;28;20196;-70
2022/10/01 10:55:52;;;;;;;10.17;7.23;;;;;;;;;;4967983;28;20232;-67
2022/10/01 10:58:22;;;;;;;10.37;6.67;;;;;;;;;;4971571;28;20621;-67
2022/10/01 11:00:49;;;;;;;7.83;6.53;;;;;;;;;;4954903;28;20182;-67
2022/10/01 11:03:17;;;;;;;10.37;7.30;;;;;;;;;;4967332;28;20187;-70
2022/10/01 11:06:02;;;;;;;9.77;6.93;;;;;;;;;;4985689;28;20376;-69
2022/10/01 11:08:29;;;;;;;8.57;6.73;;;;;;;;;;4963708;28;20202;-72
2022/10/01 11:11:21;;;;;;;9.10;6.40;;;;;;;;;;4965453;28;20217;-71
2022/10/01 11:13:51;;;;;;;8.40;6.97;;;;;;;;;;4963157;28;20213;-72
2022/10/01 11:16:18;;;;;;;6.90;5.83;;;;;;;;;;4963373;28;20224;-70
2022/10/01 11:18:48;;;;;;;10.87;6.60;;;;;;;;;;4963998;28;20197;-70
2022/10/01 11:21:14;;;;;;;8.17;6.20;;;;;;;;;;4963815;28;21034;-71
2022/10/01 11:23:47;;;;;;;8.87;6.47;;;;;;;;;;4964206;28;20197;-68
2022/10/01 11:26:27;;;;;;;9.30;6.10;;;;;;;;;;4963530;28;20201;-68
2022/10/01 11:29:22;;;;;;;9.33;6.50;;;;;;;;;;4978870;28;20845;-68
2022/10/01 11:31:57;;;;;;;8.90;6.87;;;;;;;;;;4959841;28;20212;-68
2022/10/01 11:34:31;;;;;;;9.53;7.17;;;;;;;;;;4966565;28;21018;-68
2022/10/01 11:37:01;;;;;;;10.03;6.77;;;;;;;;;;4964756;28;20193;-69
2022/10/01 11:39:27;;;;;;;9.03;6.80;;;;;;;;;;4965380;28;20201;-65
2022/10/01 11:41:54;;;;;;;9.80;6.70;;;;;;;;;;4964802;28;20268;-65
2022/10/01 11:44:31;;;;;;;12.57;6.97;;;;;;;;;;4966350;28;20190;-64
2022/10/01 11:47:19;;;;;;;10.07;6.90;;;;;;;;;;4962265;28;20236;-64
2022/10/01 11:49:51;;;;;;;10.10;7.23;;;;;;;;;;4965800;28;20958;-64
2022/10/01 11:52:22;;;;;;;9.40;7.00;;;;;;;;;;4966426;28;20248;-63
2022/10/01 11:58:49;;;;;;;8.07;6.63;;;;;;;;;;4963510;28;20260;-62
2022/10/01 12:00:37;;;;;;;8.37;6.77;;;;;;;;;;4963776;28;20900;-63
2022/10/01 12:03:04;;;;;;;10.10;6.87;;;;;;;;;;4964601;28;20185;-62
2022/10/01 12:05:30;;;;;;;10.30;7.77;;;;;;;;;;4963961;28;20194;-64
2022/10/01 12:08:10;;;;;;;11.87;6.77;;;;;;;;;;4962680;28;20210;-63
2022/10/01 12:10:39;;;;;;;8.97;6.60;;;;;;;;;;4962716;28;20600;-62
2022/10/01 12:13:06;;;;;;;9.27;7.10;;;;;;;;;;4964533;28;20196;-62
2022/10/01 12:15:37;;;;;;;8.27;7.03;;;;;;;;;;4965638;28;20197;-62
2022/10/01 12:18:10;;;;;;;9.13;6.87;;;;;;;;;;4964014;28;20279;-63
2022/10/01 12:20:45;;;;;;;7.17;6.30;;;;;;;;;;4965689;28;20721;-63
2022/10/01 12:23:41;;;;;;;9.37;6.37;;;;;;;;;;4980121;28;20192;-62
2022/10/01 12:26:08;;;;;;;8.87;5.97;;;;;;;;;;4949217;28;20218;-62
2022/10/01 12:28:39;;;;;;;7.67;5.97;;;;;;;;;;4964222;28;20196;-63
2022/10/01 12:31:09;;;;;;;9.57;5.80;;;;;;;;;;4965769;28;20193;-63
2022/10/01 12:33:54;;;;;;;9.73;6.77;;;;;;;;;;4964674;28;20191;-64
2022/10/01 12:36:24;;;;;;;7.83;5.93;;;;;;;;;;4965855;28;20656;-63
2022/10/01 12:39:01;;;;;;;9.37;6.60;;;;;;;;;;4963389;28;20213;-63
2022/10/01 12:41:33;;;;;;;7.17;5.97;;;;;;;;;;4964746;28;20201;-63
2022/10/01 12:44:04;;;;;;;9.23;6.10;;;;;;;;;;4963085;28;20221;-63
2022/10/01 12:46:50;;;;;;;9.67;5.97;;;;;;;;;;4951112;28;20237;-63
2022/10/01 12:49:23;;;;;;;8.53;5.70;;;;;;;;;;4966226;28;20205;-63
2022/10/01 12:52:11;;;;;;;6.30;4.83;;;;;;;;;;4963602;28;20202;-63
2022/10/01 12:54:44;;;;;;;7.20;5.67;;;;;;;;;;4963275;28;20208;-64
2022/10/01 12:57:11;;;;;;;6.33;5.30;;;;;;;;;;4966026;28;20280;-63
2022/10/01 12:59:39;;;;;;;5.73;5.20;;;;;;;;;;4965845;28;20197;-62
2022/10/01 13:02:15;;;;;;;8.07;5.57;;;;;;;;;;4964211;28;20291;-63
2022/10/01 13:04:57;;;;;;;7.23;5.57;;;;;;;;;;4964808;28;20296;-65
2022/10/01 13:07:34;;;;;;;9.77;5.63;;;;;;;;;;4970195;28;20312;-63
2022/10/01 13:10:05;;;;;;;7.53;5.40;;;;;;;;;;4969127;28;20196;-63
2022/10/01 13:12:44;;;;;;;8.63;5.30;;;;;;;;;;4970214;28;20215;-63
2022/10/01 13:15:16;;;;;;;10.70;5.80;;;;;;;;;;4971835;28;20197;-65
2022/10/01 13:17:47;;;;;;;6.87;5.63;;;;;;;;;;4972246;28;20212;-63
2022/10/01 13:20:15;;;;;;;8.40;6.07;;;;;;;;;;4971727;28;20271;-63
2022/10/01 13:22:54;;;;;;;8.40;6.33;;;;;;;;;;4972318;28;20185;-64
2022/10/01 13:25:21;;;;;;;8.33;6.10;;;;;;;;;;4971024;28;21051;-64
2022/10/01 13:28:06;;;;;;;9.13;5.33;;;;;;;;;;4970299;28;20857;-64
2022/10/01 13:30:35;;;;;;;10.33;6.33;;;;;;;;;;4991431;28;20228;-63
2022/10/01 13:33:02;;;;;;;8.47;6.00;;;;;;;;;;4975253;28;20200;-63
2022/10/01 13:35:30;;;;;;;9.83;6.70;;;;;;;;;;4971288;28;20297;-64
2022/10/01 13:38:20;;;;;;;8.27;6.77;;;;;;;;;;4963576;28;20280;-67
2022/10/01 13:40:55;;;;;;;15.27;6.87;;;;;;;;;;4976799;28;20625;-68
2022/10/01 13:43:22;;;;;;;8.83;6.27;;;;;;;;;;4976453;28;20225;-68
2022/10/01 13:45:49;;;;;;;7.30;5.97;;;;;;;;;;4976816;28;20245;-67
2022/10/01 13:48:20;;;;;;;8.77;7.27;;;;;;;;;;4975547;28;20205;-68
2022/10/01 13:51:01;;;;;;;8.83;7.10;;;;;;;;;;4964226;28;20233;-68
2022/10/01 13:53:29;;;;;;;9.17;6.73;;;;;;;;;;4957398;28;20194;-68
2022/10/01 13:55:57;;;;;;;10.53;7.27;;;;;;;;;;4956722;29;20194;-69
2022/10/01 13:58:30;;;;;;;11.63;7.53;;;;;;;;;;4957454;28;20275;-68
2022/10/01 14:00:58;;;;;;;10.37;7.40;;;;;;;;;;4957633;29;20558;-67
2022/10/01 14:03:48;;;;;;;13.23;7.90;;;;;;;;;;4940410;28;20205;-68
2022/10/01 14:06:29;;;;;;;10.10;7.83;;;;;;;;;;4965117;28;20687;-68
2022/10/01 14:09:03;;;;;;;11.40;8.13;;;;;;;;;;4976709;28;20240;-67
2022/10/01 14:17:07;;;;;;;10.93;8.07;;;;;;;;;;4974580;28;20204;-69
2022/10/01 14:19:34;;;;;;;10.77;7.97;;;;;;;;;;4972247;28;20194;-69
2022/10/01 14:22:01;;;;;;;11.27;7.73;;;;;;;;;;4967997;28;20674;-69
2022/10/01 14:24:40;;;;;;;13.93;8.07;;;;;;;;;;4954202;28;20666;-69
2022/10/01 14:27:16;;;;;;;10.47;7.87;;;;;;;;;;4968533;28;20273;-69
2022/10/01 14:29:45;;;;;;;10.53;7.80;;;;;;;;;;4954034;28;20196;-69
2022/10/01 14:32:20;;;;;;;11.37;7.83;;;;;;;;;;4954414;29;20249;-70
2022/10/01 14:34:50;;;;;;;13.93;8.10;;;;;;;;;;4952783;29;20593;-70
2022/10/01 14:37:17;;;;;;;12.37;7.93;;;;;;;;;;4963240;28;20201;-70
2022/10/01 14:39:44;;;;;;;11.07;8.07;;;;;;;;;;4971395;28;20201;-69
2022/10/01 14:42:16;;;;;;;11.63;8.10;;;;;;;;;;4972506;28;20733;-69
2022/10/01 14:44:45;;;;;;;12.73;7.80;;;;;;;;;;4988003;28;20218;-69
2022/10/01 14:47:19;;;;;;;10.97;7.60;;;;;;;;;;4973219;28;20260;-69
2022/10/01 14:49:45;;;;;;;11.80;8.00;;;;;;;;;;4973085;28;20185;-70
2022/10/01 14:52:21;;;;;;;11.23;7.90;;;;;;;;;;4972912;28;20197;-70
2022/10/01 14:54:56;;;;;;;12.93;8.03;;;;;;;;;;4966814;28;20262;-69
2022/10/01 14:57:25;;;;;;;10.70;7.70;;;;;;;;;;4952244;29;20208;-69
2022/10/01 14:59:52;;;;;;;9.83;7.23;;;;;;;;;;4936350;29;20226;-70